createdAt,value
2017-12-29T00:02:26.205Z,97039.98
2017-12-29T00:15:53.933Z,97068.95
2017-12-29T00:18:23.709Z,97074.20
2017-12-29T00:20:52.345Z,97074.91
2017-12-29T00:23:20.112Z,97073.71
2017-12-29T00:25:48.062Z,97080.78
2017-12-29T00:28:15.660Z,97079.78
2017-12-29T00:30:43.403Z,97087.42
2017-12-29T00:33:12.115Z,97077.33
2017-12-29T00:35:39.763Z,97082.83
2017-12-29T00:38:09.589Z,97074.42
2017-12-29T03:48:27.772Z,97210.45
2017-12-29T03:50:55.973Z,97206.81
2017-12-29T03:53:23.567Z,97206.67
2017-12-29T03:55:51.489Z,97209.44
2017-12-29T04:05:04.700Z,97226.80
2017-12-29T04:07:41.753Z,97217.94
2017-12-29T04:19:42.968Z,97231.41
2017-12-29T04:25:03.693Z,97189.90
2017-12-29T04:27:32.551Z,97223.30
2017-12-29T05:00:19.772Z,97209.54
2017-12-29T06:28:38.398Z,97216.55
2017-12-29T06:33:49.896Z,97222.81
2017-12-29T06:36:17.648Z,97222.12
2017-12-29T06:53:41.901Z,97219.61
2017-12-29T07:02:05.474Z,97238.56
2017-12-29T07:17:27.090Z,97239.94
2017-12-29T07:19:54.650Z,97232.19
2017-12-29T07:50:17.703Z,97265.08
2017-12-29T07:52:45.206Z,97263.59
2017-12-29T07:55:13.722Z,97263.76
2017-12-29T07:57:41.281Z,97259.20
2017-12-29T08:00:10.000Z,97262.20
2017-12-29T08:02:37.539Z,97262.14
2017-12-29T08:05:05.088Z,97255.65
2017-12-29T08:07:33.048Z,97228.29
2017-12-29T08:10:00.565Z,97256.89
2017-12-29T08:12:28.247Z,97257.94
2017-12-29T08:14:55.881Z,97261.67
2017-12-29T08:17:23.475Z,97265.48
2017-12-29T08:19:52.896Z,97260.00
2017-12-29T08:22:20.612Z,97262.33
2017-12-29T08:24:48.506Z,97261.43
2017-12-29T08:27:16.372Z,97242.05
2017-12-29T08:29:43.898Z,97266.05
2017-12-29T08:32:12.294Z,97260.91
2017-12-29T08:34:40.523Z,97266.63
2017-12-29T08:37:08.055Z,97267.44
2017-12-29T08:39:35.519Z,97259.55
2017-12-29T08:42:03.076Z,97261.78
2017-12-29T08:44:30.661Z,97259.47
2017-12-29T08:46:58.218Z,97260.74
2017-12-29T08:49:25.780Z,97266.77
2017-12-29T08:51:53.308Z,97254.75
2017-12-29T08:54:20.812Z,97258.73
2017-12-29T08:56:48.363Z,97262.00
2017-12-29T08:59:15.851Z,97261.09
2017-12-29T09:01:43.398Z,97259.84
2017-12-29T09:04:11.658Z,97259.98
2017-12-29T09:06:39.463Z,97254.95
2017-12-29T09:09:07.056Z,97249.83
2017-12-29T09:11:34.596Z,97258.79
2017-12-29T09:14:02.271Z,97255.02
2017-12-29T09:16:30.912Z,97253.67
2017-12-29T09:18:58.399Z,97267.95
2017-12-29T09:21:25.946Z,97256.90
2017-12-29T09:23:53.440Z,97262.77
2017-12-29T09:26:22.321Z,97263.02
2017-12-29T09:28:49.838Z,97265.94
2017-12-29T09:31:18.495Z,97270.89
2017-12-29T09:33:46.028Z,97272.63
2017-12-29T09:36:14.331Z,97271.71
2017-12-29T09:38:42.078Z,97270.14
2017-12-29T09:41:09.902Z,97267.03
2017-12-29T09:43:37.420Z,97256.16
2017-12-29T09:46:04.940Z,97251.03
2017-12-29T09:48:32.400Z,97250.33
2017-12-29T09:50:59.919Z,97240.58
2017-12-29T09:53:27.690Z,97228.42
2017-12-29T09:55:55.221Z,97227.84
2017-12-29T09:58:22.815Z,97228.61
2017-12-29T10:00:51.217Z,97222.73
2017-12-29T10:03:18.888Z,97216.57
2017-12-29T10:05:51.421Z,97213.08
2017-12-29T10:08:20.203Z,97208.91
2017-12-29T10:10:47.965Z,97200.00
2017-12-29T10:13:15.888Z,97188.36
2017-12-29T10:15:44.055Z,97175.16
2017-12-29T10:18:14.140Z,97166.48
2017-12-29T10:20:42.018Z,97159.57
2017-12-29T10:23:10.612Z,97167.16
2017-12-29T10:25:38.164Z,97155.14
2017-12-29T10:28:05.834Z,97155.89
2017-12-29T10:30:34.145Z,97147.67
2017-12-29T10:33:01.756Z,97148.66
2017-12-29T10:35:29.256Z,97145.66
2017-12-29T10:37:56.905Z,97146.50
2017-12-29T10:40:24.400Z,97141.42
2017-12-29T10:42:52.073Z,97143.44
2017-12-29T10:45:19.914Z,97136.16
2017-12-29T10:47:48.350Z,97134.99
2017-12-29T10:50:15.853Z,97125.59
2017-12-29T10:52:44.805Z,97119.58
2017-12-29T10:55:12.303Z,97121.65
2017-12-29T10:57:39.814Z,97122.66
2017-12-29T11:00:07.422Z,97117.58
2017-12-29T11:02:34.909Z,97124.39
2017-12-29T11:05:02.412Z,97118.52
2017-12-29T11:07:31.031Z,97120.40
2017-12-29T11:09:58.603Z,97119.16
2017-12-29T11:12:26.283Z,97116.22
2017-12-29T11:14:53.831Z,97120.17
2017-12-29T11:17:21.335Z,97116.83
2017-12-29T11:19:48.981Z,97106.80
2017-12-29T11:22:16.580Z,97106.35
2017-12-29T11:24:44.397Z,97102.78
2017-12-29T11:27:12.332Z,97097.92
2017-12-29T11:29:39.824Z,97098.66
2017-12-29T11:32:08.568Z,97089.84
2017-12-29T11:34:36.095Z,97086.55
2017-12-29T11:37:06.239Z,97084.97
2017-12-29T11:39:33.939Z,97073.90
2017-12-29T11:42:01.459Z,97071.19
2017-12-29T11:44:28.938Z,97070.78
2017-12-29T11:46:56.952Z,97060.06
2017-12-29T11:49:24.449Z,97052.76
2017-12-29T11:51:51.917Z,97058.35
2017-12-29T11:54:19.404Z,97037.28
2017-12-29T11:56:46.927Z,97045.25
2017-12-29T11:59:15.329Z,97033.78
2017-12-29T12:01:43.053Z,97038.06
2017-12-29T12:04:10.836Z,97043.02
2017-12-29T12:06:39.190Z,97040.88
2017-12-29T12:09:06.675Z,97037.98
2017-12-29T12:11:34.215Z,97036.86
2017-12-29T12:14:01.689Z,97032.02
2017-12-29T12:16:29.338Z,97032.17
2017-12-29T12:18:56.959Z,97023.19
2017-12-29T12:21:24.423Z,97018.30
2017-12-29T12:23:51.912Z,97008.38
2017-12-29T12:26:19.395Z,97014.14
2017-12-29T12:28:46.858Z,97005.08
2017-12-29T12:31:14.957Z,97002.64
2017-12-29T12:33:46.424Z,97003.75
2017-12-29T12:39:07.040Z,97002.32
2017-12-29T12:41:35.627Z,96998.65
2017-12-29T12:44:03.388Z,96991.89
2017-12-29T12:46:31.147Z,96986.91
2017-12-29T12:48:59.564Z,96974.98
2017-12-29T12:51:29.101Z,96973.56
2017-12-29T12:53:59.192Z,96961.27
2017-12-29T12:56:27.226Z,96949.73
2017-12-29T13:01:54.736Z,96944.72
2017-12-29T13:04:36.019Z,96942.55
2017-12-29T13:07:09.901Z,96933.52
2017-12-29T13:09:38.630Z,96915.22
2017-12-29T13:12:08.609Z,96929.00
2017-12-29T13:14:40.018Z,96922.75
2017-12-29T13:17:11.920Z,96916.31
2017-12-29T13:19:40.460Z,96907.14
2017-12-29T13:22:08.128Z,96911.91
2017-12-29T13:24:36.964Z,96908.70
2017-12-29T13:27:24.434Z,96918.72
2017-12-29T13:30:00.514Z,96922.83
2017-12-29T13:32:28.108Z,96925.30
2017-12-29T13:34:55.698Z,96913.16
2017-12-29T13:37:23.961Z,96897.81
2017-12-29T13:40:02.280Z,96911.04
2017-12-29T13:45:36.089Z,96898.31
2017-12-29T13:48:03.929Z,96901.43
2017-12-29T13:50:31.637Z,96905.56
2017-12-29T13:53:01.994Z,96902.11
2017-12-29T13:55:29.487Z,96904.69
2017-12-29T13:57:58.004Z,96907.22
2017-12-29T14:00:38.100Z,96902.59
2017-12-29T14:03:05.614Z,96896.48
2017-12-29T14:05:34.443Z,96890.22
2017-12-29T14:08:01.910Z,96887.56
2017-12-29T14:10:30.318Z,96880.64
2017-12-29T14:12:57.808Z,96885.09
2017-12-29T14:15:25.433Z,96877.98
2017-12-29T14:17:52.936Z,96881.19
2017-12-29T14:20:24.571Z,96870.20
2017-12-29T14:22:55.119Z,96868.18
2017-12-29T14:25:23.600Z,96853.80
2017-12-29T14:27:51.161Z,96854.67
2017-12-29T14:30:19.319Z,96812.81
2017-12-29T14:32:46.921Z,96844.96
2017-12-29T14:35:14.943Z,96841.77
2017-12-29T14:37:43.572Z,96842.02
2017-12-29T14:40:12.046Z,96841.81
2017-12-29T14:42:39.595Z,96839.38
2017-12-29T14:45:07.149Z,96834.75
2017-12-29T14:47:34.678Z,96829.24
2017-12-29T14:50:02.206Z,96827.63
2017-12-29T14:52:37.229Z,96814.27
2017-12-29T14:55:17.948Z,96812.80
2017-12-29T14:57:49.460Z,96807.22
2017-12-29T15:00:28.945Z,96796.80
2017-12-29T15:02:56.497Z,96792.95
2017-12-29T15:05:24.142Z,96779.28
2017-12-29T15:07:52.597Z,96776.98
2017-12-29T15:10:21.425Z,96775.38
2017-12-29T15:12:48.974Z,96772.45
2017-12-29T15:15:16.630Z,96765.38
2017-12-29T15:17:50.150Z,96760.59
2017-12-29T15:20:19.242Z,96751.04
2017-12-29T15:22:47.029Z,96749.80
2017-12-29T15:25:15.545Z,96740.92
2017-12-29T15:27:43.866Z,96743.98
2017-12-29T15:30:14.804Z,96732.75
2017-12-29T15:32:42.446Z,96727.33
2017-12-29T15:35:11.177Z,96728.27
2017-12-29T15:37:38.727Z,96726.44
2017-12-29T15:40:06.415Z,96730.02
2017-12-29T15:42:36.979Z,96727.55
2017-12-29T15:45:04.933Z,96717.02
2017-12-29T15:47:34.234Z,96717.36
2017-12-29T15:50:02.104Z,96709.95
2017-12-29T15:52:30.308Z,96708.01
2017-12-29T15:54:57.982Z,96708.14
2017-12-29T15:57:29.122Z,96694.56
2017-12-29T15:59:57.336Z,96671.20
2017-12-29T17:05:55.063Z,96541.55
2017-12-29T17:08:24.091Z,96557.58
2017-12-29T17:10:53.115Z,96554.27
2017-12-29T17:13:20.713Z,96556.13
2017-12-29T17:15:58.927Z,96543.41
2017-12-29T17:21:07.673Z,96518.87
2017-12-29T17:23:41.695Z,96518.98
2017-12-29T17:26:10.319Z,96518.68
2017-12-29T17:28:38.356Z,96506.56
2017-12-29T17:31:05.871Z,96509.73
2017-12-29T17:33:33.332Z,96507.41
2017-12-29T18:01:03.410Z,96451.39
2017-12-29T19:00:04.596Z,96424.09
